sensor_id;sensor_type;location;lat;lon;timestamp;P1;durP1;ratioP1;P2;durP2;ratioP2
61413;SDS011;47279;52.426;10.488;2022-10-16T00:00:34;1.42;;;1.08;;
61413;SDS011;47279;52.426;10.488;2022-10-16T00:03:00;2.13;;;1.20;;
61413;SDS011;47279;52.426;10.488;2022-10-16T00:05:26;1.85;;;1.08;;
61413;SDS011;47279;52.426;10.488;2022-10-16T00:07:52;1.75;;;1.00;;
61413;SDS011;47279;52.426;10.488;2022-10-16T00:10:18;1.88;;;1.10;;
61413;SDS011;47279;52.426;10.488;2022-10-16T00:12:44;1.58;;;1.23;;
61413;SDS011;47279;52.426;10.488;2022-10-16T00:15:10;2.00;;;1.35;;
61413;SDS011;47279;52.426;10.488;2022-10-16T00:17:36;2.00;;;1.10;;
61413;SDS011;47279;52.426;10.488;2022-10-16T00:20:03;1.08;;;0.95;;
61413;SDS011;47279;52.426;10.488;2022-10-16T00:22:29;1.80;;;1.00;;
61413;SDS011;47279;52.426;10.488;2022-10-16T00:24:55;0.80;;;0.80;;
61413;SDS011;47279;52.426;10.488;2022-10-16T00:27:21;1.70;;;1.40;;
61413;SDS011;47279;52.426;10.488;2022-10-16T00:29:50;1.42;;;1.10;;
61413;SDS011;47279;52.426;10.488;2022-10-16T00:32:16;1.10;;;0.90;;
61413;SDS011;47279;52.426;10.488;2022-10-16T00:34:42;1.00;;;0.90;;
61413;SDS011;47279;52.426;10.488;2022-10-16T00:37:08;1.10;;;1.00;;
61413;SDS011;47279;52.426;10.488;2022-10-16T00:39:34;1.20;;;1.10;;
61413;SDS011;47279;52.426;10.488;2022-10-16T00:42:00;2.50;;;1.20;;
61413;SDS011;47279;52.426;10.488;2022-10-16T00:44:47;1.05;;;0.90;;
61413;SDS011;47279;52.426;10.488;2022-10-16T00:47:57;1.70;;;1.10;;
61413;SDS011;47279;52.426;10.488;2022-10-16T00:50:18;1.53;;;0.87;;
61413;SDS011;47279;52.426;10.488;2022-10-16T00:52:46;1.20;;;1.00;;
61413;SDS011;47279;52.426;10.488;2022-10-16T00:55:12;1.40;;;0.93;;
61413;SDS011;47279;52.426;10.488;2022-10-16T00:57:39;1.40;;;1.08;;
61413;SDS011;47279;52.426;10.488;2022-10-16T01:00:07;1.10;;;1.00;;
61413;SDS011;47279;52.426;10.488;2022-10-16T01:02:33;1.17;;;1.00;;
61413;SDS011;47279;52.426;10.488;2022-10-16T01:04:59;1.02;;;0.93;;
61413;SDS011;47279;52.426;10.488;2022-10-16T01:07:36;2.25;;;0.80;;
61413;SDS011;47279;52.426;10.488;2022-10-16T01:12:45;1.42;;;1.00;;
61413;SDS011;47279;52.426;10.488;2022-10-16T01:20:31;1.17;;;1.05;;
61413;SDS011;47279;52.426;10.488;2022-10-16T01:25:32;1.90;;;1.27;;
61413;SDS011;47279;52.426;10.488;2022-10-16T01:28:02;1.17;;;0.90;;
61413;SDS011;47279;52.426;10.488;2022-10-16T01:30:30;1.00;;;0.80;;
61413;SDS011;47279;52.426;10.488;2022-10-16T01:33:01;1.40;;;0.93;;
61413;SDS011;47279;52.426;10.488;2022-10-16T01:35:36;0.93;;;0.80;;
61413;SDS011;47279;52.426;10.488;2022-10-16T01:40:41;0.98;;;0.90;;
61413;SDS011;47279;52.426;10.488;2022-10-16T01:43:14;1.00;;;0.90;;
61413;SDS011;47279;52.426;10.488;2022-10-16T01:45:41;0.90;;;0.90;;
61413;SDS011;47279;52.426;10.488;2022-10-16T01:48:09;2.10;;;1.15;;
61413;SDS011;47279;52.426;10.488;2022-10-16T01:50:37;1.00;;;0.90;;
61413;SDS011;47279;52.426;10.488;2022-10-16T01:53:05;1.05;;;0.93;;
61413;SDS011;47279;52.426;10.488;2022-10-16T01:55:33;0.75;;;0.75;;
61413;SDS011;47279;52.426;10.488;2022-10-16T01:58:01;0.95;;;0.73;;
61413;SDS011;47279;52.426;10.488;2022-10-16T02:00:28;1.10;;;0.98;;
61413;SDS011;47279;52.426;10.488;2022-10-16T02:02:55;1.45;;;0.80;;
61413;SDS011;47279;52.426;10.488;2022-10-16T02:07:49;1.58;;;0.90;;
61413;SDS011;47279;52.426;10.488;2022-10-16T02:10:15;0.95;;;0.85;;
61413;SDS011;47279;52.426;10.488;2022-10-16T02:12:43;0.80;;;0.65;;
61413;SDS011;47279;52.426;10.488;2022-10-16T02:15:11;1.17;;;1.08;;
61413;SDS011;47279;52.426;10.488;2022-10-16T02:17:37;0.80;;;0.80;;
61413;SDS011;47279;52.426;10.488;2022-10-16T02:20:03;1.02;;;0.95;;
61413;SDS011;47279;52.426;10.488;2022-10-16T02:22:36;1.10;;;1.00;;
61413;SDS011;47279;52.426;10.488;2022-10-16T02:32:44;1.27;;;0.80;;
61413;SDS011;47279;52.426;10.488;2022-10-16T02:35:12;1.13;;;1.10;;
61413;SDS011;47279;52.426;10.488;2022-10-16T02:37:38;0.75;;;0.70;;
61413;SDS011;47279;52.426;10.488;2022-10-16T02:40:04;1.25;;;1.00;;
61413;SDS011;47279;52.426;10.488;2022-10-16T02:42:34;1.25;;;0.80;;
61413;SDS011;47279;52.426;10.488;2022-10-16T02:45:02;0.80;;;0.77;;
61413;SDS011;47279;52.426;10.488;2022-10-16T02:47:28;0.80;;;0.70;;
61413;SDS011;47279;52.426;10.488;2022-10-16T02:49:54;1.20;;;1.08;;
61413;SDS011;47279;52.426;10.488;2022-10-16T02:52:20;1.00;;;0.80;;
61413;SDS011;47279;52.426;10.488;2022-10-16T02:54:46;0.80;;;0.80;;
61413;SDS011;47279;52.426;10.488;2022-10-16T02:57:12;0.80;;;0.80;;
61413;SDS011;47279;52.426;10.488;2022-10-16T02:59:38;1.65;;;0.90;;
61413;SDS011;47279;52.426;10.488;2022-10-16T03:02:04;0.93;;;0.80;;
61413;SDS011;47279;52.426;10.488;2022-10-16T03:04:30;1.33;;;0.98;;
61413;SDS011;47279;52.426;10.488;2022-10-16T03:06:56;1.27;;;1.00;;
61413;SDS011;47279;52.426;10.488;2022-10-16T03:09:22;0.93;;;0.85;;
61413;SDS011;47279;52.426;10.488;2022-10-16T03:11:48;1.00;;;0.80;;
61413;SDS011;47279;52.426;10.488;2022-10-16T03:14:14;0.88;;;0.82;;
61413;SDS011;47279;52.426;10.488;2022-10-16T03:16:40;0.95;;;0.77;;
61413;SDS011;47279;52.426;10.488;2022-10-16T03:19:06;1.02;;;0.90;;
61413;SDS011;47279;52.426;10.488;2022-10-16T03:21:32;0.93;;;0.82;;
61413;SDS011;47279;52.426;10.488;2022-10-16T03:23:58;0.85;;;0.80;;
61413;SDS011;47279;52.426;10.488;2022-10-16T03:26:24;1.45;;;0.80;;
61413;SDS011;47279;52.426;10.488;2022-10-16T03:28:50;1.63;;;1.27;;
61413;SDS011;47279;52.426;10.488;2022-10-16T03:31:15;0.98;;;0.90;;
61413;SDS011;47279;52.426;10.488;2022-10-16T03:33:41;0.80;;;0.80;;
61413;SDS011;47279;52.426;10.488;2022-10-16T03:36:07;1.23;;;0.70;;
61413;SDS011;47279;52.426;10.488;2022-10-16T03:38:33;0.80;;;0.80;;
61413;SDS011;47279;52.426;10.488;2022-10-16T03:40:59;0.70;;;0.70;;
61413;SDS011;47279;52.426;10.488;2022-10-16T03:43:25;1.98;;;0.90;;
61413;SDS011;47279;52.426;10.488;2022-10-16T03:45:51;0.77;;;0.73;;
61413;SDS011;47279;52.426;10.488;2022-10-16T03:48:18;0.70;;;0.70;;
61413;SDS011;47279;52.426;10.488;2022-10-16T03:50:44;0.88;;;0.80;;
61413;SDS011;47279;52.426;10.488;2022-10-16T03:53:12;0.70;;;0.70;;
61413;SDS011;47279;52.426;10.488;2022-10-16T03:55:40;0.90;;;0.90;;
61413;SDS011;47279;52.426;10.488;2022-10-16T03:58:06;0.75;;;0.75;;
61413;SDS011;47279;52.426;10.488;2022-10-16T04:00:32;0.80;;;0.80;;
61413;SDS011;47279;52.426;10.488;2022-10-16T04:02:59;1.00;;;0.80;;
61413;SDS011;47279;52.426;10.488;2022-10-16T04:05:25;0.88;;;0.85;;
61413;SDS011;47279;52.426;10.488;2022-10-16T04:07:51;1.83;;;1.00;;
61413;SDS011;47279;52.426;10.488;2022-10-16T04:10:17;0.68;;;0.68;;
61413;SDS011;47279;52.426;10.488;2022-10-16T04:12:43;0.80;;;0.80;;
61413;SDS011;47279;52.426;10.488;2022-10-16T04:15:09;1.40;;;0.90;;
61413;SDS011;47279;52.426;10.488;2022-10-16T04:17:35;1.00;;;0.90;;
61413;SDS011;47279;52.426;10.488;2022-10-16T04:20:02;0.75;;;0.75;;
61413;SDS011;47279;52.426;10.488;2022-10-16T04:22:28;0.52;;;0.52;;
61413;SDS011;47279;52.426;10.488;2022-10-16T04:24:54;1.90;;;0.90;;
61413;SDS011;47279;52.426;10.488;2022-10-16T04:27:20;0.95;;;0.80;;
61413;SDS011;47279;52.426;10.488;2022-10-16T04:29:46;0.90;;;0.90;;
61413;SDS011;47279;52.426;10.488;2022-10-16T04:32:12;0.90;;;0.90;;
61413;SDS011;47279;52.426;10.488;2022-10-16T04:34:39;1.00;;;0.90;;
61413;SDS011;47279;52.426;10.488;2022-10-16T04:37:05;0.80;;;0.68;;
61413;SDS011;47279;52.426;10.488;2022-10-16T04:39:31;0.70;;;0.70;;
61413;SDS011;47279;52.426;10.488;2022-10-16T04:41:57;1.10;;;0.75;;
61413;SDS011;47279;52.426;10.488;2022-10-16T04:44:23;1.10;;;0.93;;
61413;SDS011;47279;52.426;10.488;2022-10-16T04:46:51;0.60;;;0.60;;
61413;SDS011;47279;52.426;10.488;2022-10-16T04:49:17;1.00;;;0.80;;
61413;SDS011;47279;52.426;10.488;2022-10-16T04:51:43;1.00;;;0.90;;
61413;SDS011;47279;52.426;10.488;2022-10-16T04:54:09;1.42;;;1.02;;
61413;SDS011;47279;52.426;10.488;2022-10-16T04:56:35;0.80;;;0.75;;
61413;SDS011;47279;52.426;10.488;2022-10-16T04:59:08;0.65;;;0.65;;
61413;SDS011;47279;52.426;10.488;2022-10-16T05:01:34;0.57;;;0.57;;
61413;SDS011;47279;52.426;10.488;2022-10-16T05:04:00;0.80;;;0.75;;
61413;SDS011;47279;52.426;10.488;2022-10-16T05:06:26;1.27;;;0.85;;
61413;SDS011;47279;52.426;10.488;2022-10-16T05:08:52;0.80;;;0.77;;
61413;SDS011;47279;52.426;10.488;2022-10-16T05:11:18;1.15;;;0.82;;
61413;SDS011;47279;52.426;10.488;2022-10-16T05:13:44;1.35;;;0.77;;
61413;SDS011;47279;52.426;10.488;2022-10-16T05:16:10;0.77;;;0.77;;
61413;SDS011;47279;52.426;10.488;2022-10-16T05:18:36;0.90;;;0.90;;
61413;SDS011;47279;52.426;10.488;2022-10-16T05:21:01;4.03;;;0.80;;
61413;SDS011;47279;52.426;10.488;2022-10-16T05:23:28;0.60;;;0.60;;
61413;SDS011;47279;52.426;10.488;2022-10-16T05:25:57;0.98;;;0.90;;
61413;SDS011;47279;52.426;10.488;2022-10-16T05:28:27;0.88;;;0.88;;
61413;SDS011;47279;52.426;10.488;2022-10-16T05:30:54;0.80;;;0.80;;
61413;SDS011;47279;52.426;10.488;2022-10-16T05:33:20;0.70;;;0.70;;
61413;SDS011;47279;52.426;10.488;2022-10-16T05:35:46;0.75;;;0.75;;
61413;SDS011;47279;52.426;10.488;2022-10-16T05:38:13;1.30;;;0.80;;
61413;SDS011;47279;52.426;10.488;2022-10-16T05:40:39;0.70;;;0.65;;
61413;SDS011;47279;52.426;10.488;2022-10-16T05:43:04;0.80;;;0.80;;
61413;SDS011;47279;52.426;10.488;2022-10-16T05:45:30;0.70;;;0.70;;
61413;SDS011;47279;52.426;10.488;2022-10-16T05:47:56;0.90;;;0.70;;
61413;SDS011;47279;52.426;10.488;2022-10-16T05:50:22;0.88;;;0.88;;
61413;SDS011;47279;52.426;10.488;2022-10-16T05:52:48;0.80;;;0.80;;
61413;SDS011;47279;52.426;10.488;2022-10-16T05:55:14;1.00;;;0.85;;
61413;SDS011;47279;52.426;10.488;2022-10-16T05:57:40;0.60;;;0.60;;
61413;SDS011;47279;52.426;10.488;2022-10-16T06:00:06;0.82;;;0.80;;
61413;SDS011;47279;52.426;10.488;2022-10-16T06:02:32;0.90;;;0.90;;
61413;SDS011;47279;52.426;10.488;2022-10-16T06:04:58;0.70;;;0.70;;
61413;SDS011;47279;52.426;10.488;2022-10-16T06:07:24;0.90;;;0.80;;
61413;SDS011;47279;52.426;10.488;2022-10-16T06:09:51;0.70;;;0.70;;
61413;SDS011;47279;52.426;10.488;2022-10-16T06:12:17;0.60;;;0.60;;
61413;SDS011;47279;52.426;10.488;2022-10-16T06:14:44;0.70;;;0.70;;
61413;SDS011;47279;52.426;10.488;2022-10-16T06:17:11;0.85;;;0.82;;
61413;SDS011;47279;52.426;10.488;2022-10-16T06:19:37;1.30;;;0.80;;
61413;SDS011;47279;52.426;10.488;2022-10-16T06:22:03;0.70;;;0.70;;
61413;SDS011;47279;52.426;10.488;2022-10-16T06:24:29;0.90;;;0.80;;
61413;SDS011;47279;52.426;10.488;2022-10-16T06:26:55;0.70;;;0.70;;
61413;SDS011;47279;52.426;10.488;2022-10-16T06:29:21;0.98;;;0.70;;
61413;SDS011;47279;52.426;10.488;2022-10-16T06:31:47;0.70;;;0.70;;
61413;SDS011;47279;52.426;10.488;2022-10-16T06:34:13;0.80;;;0.75;;
61413;SDS011;47279;52.426;10.488;2022-10-16T06:36:39;0.95;;;0.90;;
61413;SDS011;47279;52.426;10.488;2022-10-16T06:39:06;0.90;;;0.90;;
61413;SDS011;47279;52.426;10.488;2022-10-16T06:41:32;0.70;;;0.70;;
61413;SDS011;47279;52.426;10.488;2022-10-16T06:43:58;0.65;;;0.65;;
61413;SDS011;47279;52.426;10.488;2022-10-16T06:46:24;0.88;;;0.85;;
61413;SDS011;47279;52.426;10.488;2022-10-16T06:48:50;0.80;;;0.80;;
61413;SDS011;47279;52.426;10.488;2022-10-16T06:51:17;1.02;;;0.80;;
61413;SDS011;47279;52.426;10.488;2022-10-16T06:53:45;0.88;;;0.80;;
61413;SDS011;47279;52.426;10.488;2022-10-16T06:56:15;0.70;;;0.70;;
61413;SDS011;47279;52.426;10.488;2022-10-16T06:58:42;0.93;;;0.75;;
61413;SDS011;47279;52.426;10.488;2022-10-16T07:01:08;0.65;;;0.60;;
61413;SDS011;47279;52.426;10.488;2022-10-16T07:03:38;0.65;;;0.65;;
61413;SDS011;47279;52.426;10.488;2022-10-16T07:06:05;0.77;;;0.77;;
61413;SDS011;47279;52.426;10.488;2022-10-16T07:08:32;0.68;;;0.68;;
61413;SDS011;47279;52.426;10.488;2022-10-16T07:10:59;0.70;;;0.70;;
61413;SDS011;47279;52.426;10.488;2022-10-16T07:13:25;0.82;;;0.77;;
61413;SDS011;47279;52.426;10.488;2022-10-16T07:15:51;0.88;;;0.70;;
61413;SDS011;47279;52.426;10.488;2022-10-16T07:18:17;0.70;;;0.70;;
61413;SDS011;47279;52.426;10.488;2022-10-16T07:20:43;1.13;;;0.88;;
61413;SDS011;47279;52.426;10.488;2022-10-16T07:23:09;1.15;;;0.77;;
61413;SDS011;47279;52.426;10.488;2022-10-16T07:25:35;0.80;;;0.80;;
61413;SDS011;47279;52.426;10.488;2022-10-16T07:28:01;0.70;;;0.70;;
61413;SDS011;47279;52.426;10.488;2022-10-16T07:30:27;0.80;;;0.80;;
61413;SDS011;47279;52.426;10.488;2022-10-16T07:32:53;4.50;;;1.00;;
61413;SDS011;47279;52.426;10.488;2022-10-16T07:35:19;0.80;;;0.80;;
61413;SDS011;47279;52.426;10.488;2022-10-16T07:37:45;0.75;;;0.75;;
61413;SDS011;47279;52.426;10.488;2022-10-16T07:40:11;0.60;;;0.60;;
61413;SDS011;47279;52.426;10.488;2022-10-16T07:42:37;0.80;;;0.80;;
61413;SDS011;47279;52.426;10.488;2022-10-16T07:45:03;0.70;;;0.70;;
61413;SDS011;47279;52.426;10.488;2022-10-16T07:47:29;0.90;;;0.73;;
61413;SDS011;47279;52.426;10.488;2022-10-16T07:49:55;0.70;;;0.70;;
61413;SDS011;47279;52.426;10.488;2022-10-16T07:52:21;1.00;;;0.90;;
61413;SDS011;47279;52.426;10.488;2022-10-16T07:54:47;0.80;;;0.80;;
61413;SDS011;47279;52.426;10.488;2022-10-16T07:57:13;0.90;;;0.90;;
61413;SDS011;47279;52.426;10.488;2022-10-16T07:59:44;0.73;;;0.73;;
61413;SDS011;47279;52.426;10.488;2022-10-16T08:02:10;1.42;;;0.73;;
61413;SDS011;47279;52.426;10.488;2022-10-16T08:04:36;0.80;;;0.80;;
61413;SDS011;47279;52.426;10.488;2022-10-16T08:07:02;0.70;;;0.70;;
61413;SDS011;47279;52.426;10.488;2022-10-16T08:09:28;0.60;;;0.60;;
61413;SDS011;47279;52.426;10.488;2022-10-16T08:11:54;0.75;;;0.75;;
61413;SDS011;47279;52.426;10.488;2022-10-16T08:14:20;1.15;;;0.80;;
61413;SDS011;47279;52.426;10.488;2022-10-16T08:16:46;0.60;;;0.60;;
61413;SDS011;47279;52.426;10.488;2022-10-16T08:19:12;0.77;;;0.77;;
61413;SDS011;47279;52.426;10.488;2022-10-16T08:21:40;0.70;;;0.70;;
61413;SDS011;47279;52.426;10.488;2022-10-16T08:24:06;0.60;;;0.60;;
61413;SDS011;47279;52.426;10.488;2022-10-16T08:26:32;0.73;;;0.73;;
61413;SDS011;47279;52.426;10.488;2022-10-16T08:28:58;0.70;;;0.70;;
61413;SDS011;47279;52.426;10.488;2022-10-16T08:31:24;0.70;;;0.70;;
61413;SDS011;47279;52.426;10.488;2022-10-16T08:33:52;0.60;;;0.60;;
61413;SDS011;47279;52.426;10.488;2022-10-16T08:36:18;0.70;;;0.70;;
61413;SDS011;47279;52.426;10.488;2022-10-16T08:38:46;0.77;;;0.77;;
61413;SDS011;47279;52.426;10.488;2022-10-16T08:48:56;0.77;;;0.77;;
61413;SDS011;47279;52.426;10.488;2022-10-16T08:51:32;0.98;;;0.98;;
61413;SDS011;47279;52.426;10.488;2022-10-16T08:54:01;1.30;;;0.70;;
61413;SDS011;47279;52.426;10.488;2022-10-16T08:56:29;0.60;;;0.60;;
61413;SDS011;47279;52.426;10.488;2022-10-16T08:58:57;0.70;;;0.70;;
61413;SDS011;47279;52.426;10.488;2022-10-16T09:01:23;0.80;;;0.80;;
61413;SDS011;47279;52.426;10.488;2022-10-16T09:04:04;0.70;;;0.70;;
61413;SDS011;47279;52.426;10.488;2022-10-16T09:06:50;0.90;;;0.80;;
61413;SDS011;47279;52.426;10.488;2022-10-16T09:14:35;0.73;;;0.73;;
61413;SDS011;47279;52.426;10.488;2022-10-16T09:17:27;0.60;;;0.60;;
61413;SDS011;47279;52.426;10.488;2022-10-16T09:22:33;0.90;;;0.80;;
61413;SDS011;47279;52.426;10.488;2022-10-16T09:25:00;0.65;;;0.65;;
61413;SDS011;47279;52.426;10.488;2022-10-16T09:27:27;0.63;;;0.63;;
61413;SDS011;47279;52.426;10.488;2022-10-16T09:29:53;0.80;;;0.80;;
61413;SDS011;47279;52.426;10.488;2022-10-16T09:32:19;0.70;;;0.70;;
61413;SDS011;47279;52.426;10.488;2022-10-16T09:34:53;0.70;;;0.70;;
61413;SDS011;47279;52.426;10.488;2022-10-16T09:37:21;0.60;;;0.60;;
61413;SDS011;47279;52.426;10.488;2022-10-16T09:39:52;0.60;;;0.60;;
61413;SDS011;47279;52.426;10.488;2022-10-16T09:42:25;0.82;;;0.63;;
61413;SDS011;47279;52.426;10.488;2022-10-16T09:44:53;0.50;;;0.50;;
61413;SDS011;47279;52.426;10.488;2022-10-16T09:47:21;0.65;;;0.65;;
61413;SDS011;47279;52.426;10.488;2022-10-16T09:50:02;0.70;;;0.70;;
61413;SDS011;47279;52.426;10.488;2022-10-16T09:52:31;0.63;;;0.63;;
61413;SDS011;47279;52.426;10.488;2022-10-16T09:55:01;1.23;;;0.77;;
61413;SDS011;47279;52.426;10.488;2022-10-16T09:59:54;0.90;;;0.70;;
61413;SDS011;47279;52.426;10.488;2022-10-16T10:02:38;1.00;;;0.70;;
61413;SDS011;47279;52.426;10.488;2022-10-16T10:05:04;0.60;;;0.60;;
61413;SDS011;47279;52.426;10.488;2022-10-16T10:07:32;0.60;;;0.60;;
61413;SDS011;47279;52.426;10.488;2022-10-16T10:09:59;0.70;;;0.70;;
61413;SDS011;47279;52.426;10.488;2022-10-16T10:12:25;0.60;;;0.60;;
61413;SDS011;47279;52.426;10.488;2022-10-16T10:14:53;0.65;;;0.65;;
61413;SDS011;47279;52.426;10.488;2022-10-16T10:17:21;0.57;;;0.57;;
61413;SDS011;47279;52.426;10.488;2022-10-16T10:19:55;0.75;;;0.65;;
61413;SDS011;47279;52.426;10.488;2022-10-16T10:25:16;0.85;;;0.75;;
61413;SDS011;47279;52.426;10.488;2022-10-16T10:33:03;0.60;;;0.60;;
61413;SDS011;47279;52.426;10.488;2022-10-16T10:35:38;0.60;;;0.60;;
61413;SDS011;47279;52.426;10.488;2022-10-16T10:38:19;0.60;;;0.60;;
61413;SDS011;47279;52.426;10.488;2022-10-16T10:40:51;0.70;;;0.70;;
61413;SDS011;47279;52.426;10.488;2022-10-16T10:45:47;0.50;;;0.50;;
61413;SDS011;47279;52.426;10.488;2022-10-16T10:58:40;0.70;;;0.70;;
61413;SDS011;47279;52.426;10.488;2022-10-16T11:01:12;0.60;;;0.60;;
61413;SDS011;47279;52.426;10.488;2022-10-16T11:03:58;0.70;;;0.70;;
61413;SDS011;47279;52.426;10.488;2022-10-16T11:06:31;0.77;;;0.60;;
61413;SDS011;47279;52.426;10.488;2022-10-16T11:09:06;0.60;;;0.60;;
61413;SDS011;47279;52.426;10.488;2022-10-16T11:11:50;0.60;;;0.60;;
61413;SDS011;47279;52.426;10.488;2022-10-16T11:14:19;0.60;;;0.60;;
61413;SDS011;47279;52.426;10.488;2022-10-16T11:19:35;0.60;;;0.60;;
61413;SDS011;47279;52.426;10.488;2022-10-16T11:25:24;0.70;;;0.68;;
61413;SDS011;47279;52.426;10.488;2022-10-16T11:27:35;0.57;;;0.57;;
61413;SDS011;47279;52.426;10.488;2022-10-16T11:30:03;0.70;;;0.70;;
61413;SDS011;47279;52.426;10.488;2022-10-16T11:32:32;0.65;;;0.65;;
61413;SDS011;47279;52.426;10.488;2022-10-16T11:35:06;0.50;;;0.50;;
61413;SDS011;47279;52.426;10.488;2022-10-16T11:37:36;0.60;;;0.60;;
61413;SDS011;47279;52.426;10.488;2022-10-16T11:40:27;0.60;;;0.60;;
61413;SDS011;47279;52.426;10.488;2022-10-16T11:45:57;0.50;;;0.50;;
61413;SDS011;47279;52.426;10.488;2022-10-16T11:48:27;0.77;;;0.60;;
61413;SDS011;47279;52.426;10.488;2022-10-16T11:51:11;0.80;;;0.80;;
61413;SDS011;47279;52.426;10.488;2022-10-16T11:56:11;0.60;;;0.60;;
61413;SDS011;47279;52.426;10.488;2022-10-16T11:58:41;0.70;;;0.70;;
61413;SDS011;47279;52.426;10.488;2022-10-16T12:08:49;0.57;;;0.57;;
61413;SDS011;47279;52.426;10.488;2022-10-16T12:13:47;0.50;;;0.50;;
61413;SDS011;47279;52.426;10.488;2022-10-16T12:18:39;1.02;;;0.80;;
61413;SDS011;47279;52.426;10.488;2022-10-16T12:21:06;0.60;;;0.60;;
61413;SDS011;47279;52.426;10.488;2022-10-16T12:23:33;0.55;;;0.50;;
61413;SDS011;47279;52.426;10.488;2022-10-16T12:26:02;0.60;;;0.60;;
61413;SDS011;47279;52.426;10.488;2022-10-16T12:28:29;0.40;;;0.40;;
61413;SDS011;47279;52.426;10.488;2022-10-16T12:33:23;0.63;;;0.60;;
61413;SDS011;47279;52.426;10.488;2022-10-16T12:35:50;0.70;;;0.70;;
61413;SDS011;47279;52.426;10.488;2022-10-16T12:38:20;1.30;;;0.70;;
61413;SDS011;47279;52.426;10.488;2022-10-16T12:40:54;0.70;;;0.70;;
61413;SDS011;47279;52.426;10.488;2022-10-16T12:45:46;0.43;;;0.43;;
61413;SDS011;47279;52.426;10.488;2022-10-16T12:48:19;0.95;;;0.70;;
61413;SDS011;47279;52.426;10.488;2022-10-16T12:50:46;1.88;;;0.55;;
61413;SDS011;47279;52.426;10.488;2022-10-16T12:55:48;0.50;;;0.50;;
61413;SDS011;47279;52.426;10.488;2022-10-16T12:58:25;0.60;;;0.60;;
61413;SDS011;47279;52.426;10.488;2022-10-16T13:00:57;1.25;;;0.60;;
61413;SDS011;47279;52.426;10.488;2022-10-16T13:19:15;0.50;;;0.50;;
61413;SDS011;47279;52.426;10.488;2022-10-16T13:29:00;0.75;;;0.75;;
61413;SDS011;47279;52.426;10.488;2022-10-16T13:31:27;0.40;;;0.40;;
61413;SDS011;47279;52.426;10.488;2022-10-16T13:33:54;0.50;;;0.50;;
61413;SDS011;47279;52.426;10.488;2022-10-16T13:38:47;0.50;;;0.50;;
61413;SDS011;47279;52.426;10.488;2022-10-16T13:41:17;0.50;;;0.50;;
61413;SDS011;47279;52.426;10.488;2022-10-16T13:43:51;0.90;;;0.50;;
61413;SDS011;47279;52.426;10.488;2022-10-16T13:46:19;2.38;;;0.63;;
61413;SDS011;47279;52.426;10.488;2022-10-16T13:48:56;0.52;;;0.52;;
61413;SDS011;47279;52.426;10.488;2022-10-16T13:51:22;1.13;;;0.50;;
61413;SDS011;47279;52.426;10.488;2022-10-16T13:53:48;0.50;;;0.50;;
61413;SDS011;47279;52.426;10.488;2022-10-16T13:56:18;0.50;;;0.50;;
61413;SDS011;47279;52.426;10.488;2022-10-16T13:58:44;0.43;;;0.43;;
61413;SDS011;47279;52.426;10.488;2022-10-16T14:01:19;0.63;;;0.50;;
61413;SDS011;47279;52.426;10.488;2022-10-16T14:03:46;0.50;;;0.50;;
61413;SDS011;47279;52.426;10.488;2022-10-16T14:06:14;0.43;;;0.43;;
61413;SDS011;47279;52.426;10.488;2022-10-16T14:08:44;0.50;;;0.50;;
61413;SDS011;47279;52.426;10.488;2022-10-16T14:11:11;0.50;;;0.50;;
61413;SDS011;47279;52.426;10.488;2022-10-16T14:13:38;0.40;;;0.40;;
61413;SDS011;47279;52.426;10.488;2022-10-16T14:16:09;0.52;;;0.40;;
61413;SDS011;47279;52.426;10.488;2022-10-16T14:18:37;0.63;;;0.57;;
61413;SDS011;47279;52.426;10.488;2022-10-16T14:21:05;0.57;;;0.57;;
61413;SDS011;47279;52.426;10.488;2022-10-16T14:23:36;0.52;;;0.52;;
61413;SDS011;47279;52.426;10.488;2022-10-16T14:28:34;0.45;;;0.40;;
61413;SDS011;47279;52.426;10.488;2022-10-16T14:31:01;0.50;;;0.50;;
61413;SDS011;47279;52.426;10.488;2022-10-16T14:38:29;0.40;;;0.40;;
61413;SDS011;47279;52.426;10.488;2022-10-16T14:40:57;0.40;;;0.40;;
61413;SDS011;47279;52.426;10.488;2022-10-16T14:43:34;0.60;;;0.60;;
61413;SDS011;47279;52.426;10.488;2022-10-16T14:46:01;0.50;;;0.50;;
61413;SDS011;47279;52.426;10.488;2022-10-16T14:48:28;0.82;;;0.50;;
61413;SDS011;47279;52.426;10.488;2022-10-16T14:50:54;0.50;;;0.50;;
61413;SDS011;47279;52.426;10.488;2022-10-16T14:53:20;0.30;;;0.30;;
61413;SDS011;47279;52.426;10.488;2022-10-16T14:55:46;0.50;;;0.50;;
61413;SDS011;47279;52.426;10.488;2022-10-16T14:58:17;1.23;;;0.60;;
61413;SDS011;47279;52.426;10.488;2022-10-16T15:00:43;0.52;;;0.52;;
61413;SDS011;47279;52.426;10.488;2022-10-16T15:03:10;0.60;;;0.60;;
61413;SDS011;47279;52.426;10.488;2022-10-16T15:05:36;0.50;;;0.50;;
61413;SDS011;47279;52.426;10.488;2022-10-16T15:08:02;0.40;;;0.40;;
61413;SDS011;47279;52.426;10.488;2022-10-16T15:10:29;0.65;;;0.65;;
61413;SDS011;47279;52.426;10.488;2022-10-16T15:12:57;0.55;;;0.52;;
61413;SDS011;47279;52.426;10.488;2022-10-16T15:17:49;0.75;;;0.60;;
61413;SDS011;47279;52.426;10.488;2022-10-16T15:20:21;0.50;;;0.50;;
61413;SDS011;47279;52.426;10.488;2022-10-16T15:22:47;0.50;;;0.50;;
61413;SDS011;47279;52.426;10.488;2022-10-16T15:25:25;0.60;;;0.45;;
61413;SDS011;47279;52.426;10.488;2022-10-16T15:27:53;0.50;;;0.50;;
61413;SDS011;47279;52.426;10.488;2022-10-16T15:30:19;0.82;;;0.60;;
61413;SDS011;47279;52.426;10.488;2022-10-16T15:32:44;0.77;;;0.50;;
61413;SDS011;47279;52.426;10.488;2022-10-16T15:35:10;0.60;;;0.60;;
61413;SDS011;47279;52.426;10.488;2022-10-16T15:37:36;0.40;;;0.40;;
61413;SDS011;47279;52.426;10.488;2022-10-16T15:40:02;0.50;;;0.50;;
61413;SDS011;47279;52.426;10.488;2022-10-16T15:42:28;0.40;;;0.40;;
61413;SDS011;47279;52.426;10.488;2022-10-16T15:44:54;0.60;;;0.60;;
61413;SDS011;47279;52.426;10.488;2022-10-16T15:47:20;0.50;;;0.50;;
61413;SDS011;47279;52.426;10.488;2022-10-16T15:49:46;0.60;;;0.43;;
61413;SDS011;47279;52.426;10.488;2022-10-16T15:52:12;0.60;;;0.47;;
61413;SDS011;47279;52.426;10.488;2022-10-16T15:54:38;0.40;;;0.40;;
61413;SDS011;47279;52.426;10.488;2022-10-16T15:57:04;0.40;;;0.40;;
61413;SDS011;47279;52.426;10.488;2022-10-16T15:59:30;0.50;;;0.50;;
61413;SDS011;47279;52.426;10.488;2022-10-16T16:01:56;0.95;;;0.60;;
61413;SDS011;47279;52.426;10.488;2022-10-16T16:04:22;0.50;;;0.50;;
61413;SDS011;47279;52.426;10.488;2022-10-16T16:06:48;0.50;;;0.50;;
61413;SDS011;47279;52.426;10.488;2022-10-16T16:09:14;0.40;;;0.40;;
61413;SDS011;47279;52.426;10.488;2022-10-16T16:11:40;0.50;;;0.50;;
61413;SDS011;47279;52.426;10.488;2022-10-16T16:14:06;1.00;;;0.50;;
61413;SDS011;47279;52.426;10.488;2022-10-16T16:16:33;0.60;;;0.60;;
61413;SDS011;47279;52.426;10.488;2022-10-16T16:19:02;0.70;;;0.70;;
61413;SDS011;47279;52.426;10.488;2022-10-16T16:21:28;0.60;;;0.60;;
61413;SDS011;47279;52.426;10.488;2022-10-16T16:23:54;0.40;;;0.40;;
61413;SDS011;47279;52.426;10.488;2022-10-16T16:26:24;0.60;;;0.60;;
61413;SDS011;47279;52.426;10.488;2022-10-16T16:28:57;0.50;;;0.50;;
61413;SDS011;47279;52.426;10.488;2022-10-16T16:31:24;0.57;;;0.55;;
61413;SDS011;47279;52.426;10.488;2022-10-16T16:33:50;1.02;;;0.88;;
61413;SDS011;47279;52.426;10.488;2022-10-16T16:36:16;1.75;;;0.82;;
61413;SDS011;47279;52.426;10.488;2022-10-16T16:38:43;0.60;;;0.60;;
61413;SDS011;47279;52.426;10.488;2022-10-16T16:41:15;0.60;;;0.60;;
61413;SDS011;47279;52.426;10.488;2022-10-16T16:43:41;1.10;;;0.75;;
61413;SDS011;47279;52.426;10.488;2022-10-16T16:46:07;0.80;;;0.70;;